Terminal Aerodrome Forecast
Issued by NWS

Home | Current Version | Previous Version | Text Only | Print | Product List | Glossary On
Versions: 1 2 3 4 5 6 7 8 9 10 11 12 13 14 15 16 17 18 19 20 21 22 23 24 25 26 27 28 29 30
129
FTUS43 KDLH 280523
TAFHIB
TAF
KHIB 280523Z 2806/2906 15004KT P6SM SCT150 WS020/20030KT
     FM280800 15007KT P6SM VCSH SCT035 BKN060 WS020/20030KT
     FM281100 13011KT P6SM VCSH SCT050 BKN120 WS020/20030KT
     FM281300 13011KT 5SM -SHRA SCT025 BKN080
     FM281500 14010KT 5SM -SHRA VCTS BKN012CB OVC070
     FM281900 12008KT 3SM -SHRA OVC008
     FM290000 14006KT P6SM VCSH OVC008=

USA.gov is the U.S. government's official web portal to all federal, state and local government web resources and services.